KFTK

Godman AAF Airport

Fort Knox, Kentucky, USA
METAR KFTK 201456Z AUTO 19021G28KT 10SM CLR 21/13 A3017 RMK AO2 PK WND 20031/25 SLP216 T02060131 50012
Observed Flight Rules
Feb-20 @ 14:56 UTC (2 hours ago) Visual Flight Rules
Wind Visibility Clouds
190° at 21 knots
 Gusting to 28 knots
10 miles
  • Clear skies
Temperatures Readings
Current 21°C / 70°F
Dewpoint 13°C / 55°F
Humidity 60%
Altimeter 30.17" Hg
Pressure 1021.6 hPa
Elevation 230
METAR KFTK 201456Z AUTO 19021G28KT 10SM CLR 21/13 A3017 RMK AO2 PK WND 20031/25 SLP216 T02060131 50012
Observed Flight Rules
Feb-20 @ 14:56 UTC
(2 hours ago)
VFR
Wind Visibility
190° at 21 knots
 Gusting to 28 knots
10 miles
Clouds
  • Clear skies
Temperature Dewpoint
21°C / 70°F 13°C / 55°F
Humidity Altimeter Pressure
60% 30.17" Hg 1021.6 hPa